Terminal Aerodrome Forecast
Issued by NWS

Home | Current Version | Previous Version | Text Only | Print | Product List | Glossary On
Versions: 1 2 3 4 5 6 7 8 9 10 11 12 13 14 15 16 17 18 19 20 21 22 23 24 25 26 27
000
FTUS45 KGJT 232342
TAFTEX
TAF
KTEX 232342Z 2400/2424 19005KT P6SM VCTS SCT100CB BKN150
      TEMPO 2400/2402 VRB15G25KT -TSRA SCT080CB BKN120
     FM240300 15008KT P6SM VCSH SCT060 BKN100
     FM240600 13004KT P6SM SCT100 BKN150
     FM241800 16006KT P6SM VCTS BKN100CB BKN150=

USA.gov is the U.S. government's official web portal to all federal, state and local government web resources and services.